createdAt,value
2018-06-24T00:00:16.640Z,73.9
2018-06-24T00:01:16.965Z,74.2
2018-06-24T00:02:17.217Z,74.2
2018-06-24T00:03:16.475Z,75.3
2018-06-24T00:04:16.750Z,76.0
2018-06-24T00:05:17.013Z,76.0
2018-06-24T00:06:16.289Z,76.5
2018-06-24T00:07:16.563Z,76.7
2018-06-24T00:08:16.816Z,77.0
2018-06-24T00:09:17.076Z,76.9
2018-06-24T00:10:16.337Z,76.9
2018-06-24T00:11:16.387Z,76.6
2018-06-24T00:12:16.642Z,76.8
2018-06-24T00:13:16.899Z,77.2
2018-06-24T00:14:17.290Z,76.6
2018-06-24T00:15:16.575Z,76.9
2018-06-24T00:16:16.832Z,77.2
2018-06-24T00:17:17.112Z,77.0
2018-06-24T00:18:16.371Z,76.7
2018-06-24T00:19:16.627Z,77.0
2018-06-24T00:20:16.895Z,77.2
2018-06-24T00:21:16.937Z,77.2
2018-06-24T00:22:17.195Z,77.2
2018-06-24T00:23:16.457Z,77.5
2018-06-24T00:24:16.718Z,77.5
2018-06-24T00:25:16.992Z,77.7
2018-06-24T00:26:16.255Z,77.8
2018-06-24T00:27:16.527Z,78.0
2018-06-24T00:28:16.786Z,78.4
2018-06-24T00:29:17.048Z,78.7
2018-06-24T00:30:16.308Z,79.0
2018-06-24T00:31:16.354Z,79.0
2018-06-24T00:32:16.633Z,79.1
2018-06-24T00:33:16.893Z,79.5
2018-06-24T00:34:17.158Z,79.7
2018-06-24T00:35:16.431Z,79.7
2018-06-24T00:36:16.696Z,79.5
2018-06-24T00:37:17.082Z,79.6
2018-06-24T00:38:16.480Z,79.7
2018-06-24T00:39:16.736Z,79.8
2018-06-24T00:40:16.997Z,79.8
2018-06-24T00:41:17.025Z,79.7
2018-06-24T00:42:16.288Z,79.7
2018-06-24T00:43:16.544Z,79.7
2018-06-24T00:44:16.801Z,79.7
2018-06-24T00:45:17.058Z,79.8
2018-06-24T00:46:16.341Z,79.9
2018-06-24T00:47:16.618Z,79.8
2018-06-24T00:48:16.888Z,79.8
2018-06-24T00:49:17.149Z,79.6
2018-06-24T00:50:16.425Z,79.5
2018-06-24T00:51:16.459Z,79.6
2018-06-24T00:52:16.719Z,79.7
2018-06-24T00:53:16.978Z,79.7
2018-06-24T00:54:17.232Z,79.5
2018-06-24T00:55:16.492Z,79.2
2018-06-24T00:56:16.752Z,79.0
2018-06-24T00:57:17.019Z,79.0
2018-06-24T00:58:16.284Z,79.0
2018-06-24T00:59:16.549Z,79.0
2018-06-24T01:00:16.824Z,79.2
2018-06-24T01:01:16.877Z,79.3
2018-06-24T01:02:17.143Z,79.4
2018-06-24T01:03:16.404Z,79.4
2018-06-24T01:04:16.669Z,79.8
2018-06-24T01:05:16.923Z,80.0
2018-06-24T01:06:17.183Z,80.0
2018-06-24T01:07:16.454Z,79.4
2018-06-24T01:08:16.726Z,79.2
2018-06-24T01:09:16.992Z,79.5
2018-06-24T01:10:16.260Z,79.9
2018-06-24T01:11:16.293Z,80.3
2018-06-24T01:12:16.547Z,80.2
2018-06-24T01:13:16.803Z,80.2
2018-06-24T01:14:17.071Z,80.2
2018-06-24T01:15:16.335Z,80.0
2018-06-24T01:16:16.599Z,80.2
2018-06-24T01:17:16.861Z,80.2
2018-06-24T01:18:17.124Z,80.5
2018-06-24T01:19:16.383Z,80.4
2018-06-24T01:20:16.657Z,80.8
2018-06-24T01:21:16.709Z,80.6
2018-06-24T01:22:16.982Z,79.4
2018-06-24T01:23:17.557Z,80.0
2018-06-24T01:24:16.820Z,80.4
2018-06-24T01:25:17.083Z,80.4
2018-06-24T01:26:16.333Z,80.7
2018-06-24T01:27:16.591Z,81.0
2018-06-24T01:28:16.871Z,81.0
2018-06-24T01:29:17.130Z,81.2
2018-06-24T01:30:16.399Z,81.2
2018-06-24T01:31:16.436Z,81.4
2018-06-24T01:32:16.693Z,81.3
2018-06-24T01:33:16.951Z,81.3
2018-06-24T01:34:17.219Z,81.4
2018-06-24T01:35:16.485Z,81.6
2018-06-24T01:36:16.789Z,81.7
2018-06-24T01:37:17.054Z,81.7
2018-06-24T01:38:16.322Z,81.7
2018-06-24T01:39:16.584Z,81.5
2018-06-24T01:40:16.843Z,81.5
2018-06-24T01:41:16.884Z,81.5
2018-06-24T01:42:17.154Z,81.2
2018-06-24T01:43:16.416Z,81.3
2018-06-24T01:44:16.678Z,81.5
2018-06-24T01:45:16.946Z,81.6
2018-06-24T01:46:17.210Z,81.3
2018-06-24T01:47:16.474Z,81.4
2018-06-24T01:48:16.742Z,81.2
2018-06-24T01:49:17.013Z,81.2
2018-06-24T01:50:16.292Z,80.7
2018-06-24T01:51:16.330Z,80.8
2018-06-24T01:52:16.598Z,80.2
2018-06-24T01:53:16.863Z,81.1
2018-06-24T01:54:17.125Z,81.1
2018-06-24T01:55:16.379Z,81.0
2018-06-24T01:56:16.640Z,80.8
2018-06-24T01:57:16.911Z,81.0
2018-06-24T01:58:17.462Z,81.2
2018-06-24T01:59:16.720Z,80.7
2018-06-24T02:00:17.011Z,80.8
2018-06-24T02:01:17.027Z,80.8
2018-06-24T02:02:16.290Z,80.5
2018-06-24T02:03:16.552Z,79.8
2018-06-24T02:04:16.806Z,80.0
2018-06-24T02:05:17.094Z,79.8
2018-06-24T02:06:16.368Z,79.4
2018-06-24T02:07:16.623Z,79.3
2018-06-24T02:08:16.878Z,79.5
2018-06-24T02:09:17.137Z,79.4
2018-06-24T02:10:16.403Z,79.3
2018-06-24T02:11:16.484Z,80.0
2018-06-24T02:12:16.756Z,79.8
2018-06-24T02:13:17.014Z,79.4
2018-06-24T02:14:16.585Z,79.7
2018-06-24T02:15:16.853Z,79.7
2018-06-24T02:16:17.122Z,79.7
2018-06-24T02:17:16.392Z,79.2
2018-06-24T02:18:16.649Z,79.2
2018-06-24T02:19:16.910Z,79.5
2018-06-24T02:20:17.173Z,78.8
2018-06-24T02:21:17.220Z,78.7
2018-06-24T02:22:16.476Z,79.0
2018-06-24T02:23:16.739Z,79.0
2018-06-24T02:24:17.014Z,79.0
2018-06-24T02:25:16.277Z,78.8
2018-06-24T02:26:16.542Z,78.4
2018-06-24T02:27:16.809Z,78.7
2018-06-24T02:28:17.288Z,78.7
2018-06-24T02:29:16.547Z,78.9
2018-06-24T02:30:16.844Z,78.7
2018-06-24T02:31:16.873Z,79.0
2018-06-24T02:32:17.147Z,79.3
2018-06-24T02:33:16.411Z,79.4
2018-06-24T02:34:16.679Z,78.7
2018-06-24T02:35:16.962Z,78.6
2018-06-24T02:36:17.222Z,78.2
2018-06-24T02:37:16.495Z,78.4
2018-06-24T02:38:16.756Z,78.5
2018-06-24T02:39:17.012Z,78.4
2018-06-24T02:40:16.287Z,78.7
2018-06-24T02:41:16.330Z,78.8
2018-06-24T02:42:16.587Z,78.5
2018-06-24T02:43:16.860Z,78.5
2018-06-24T02:44:17.125Z,78.6
2018-06-24T02:45:16.396Z,78.7
2018-06-24T02:46:16.659Z,78.8
2018-06-24T02:47:16.919Z,78.8
2018-06-24T02:48:17.485Z,78.7
2018-06-24T02:49:16.751Z,78.7
2018-06-24T02:50:17.025Z,78.6
2018-06-24T02:51:17.081Z,78.8
2018-06-24T02:52:16.358Z,78.8
2018-06-24T02:53:16.621Z,78.8
2018-06-24T02:54:16.883Z,78.7
2018-06-24T02:55:17.138Z,78.5
2018-06-24T02:56:16.405Z,78.8
2018-06-24T02:57:16.661Z,78.8
2018-06-24T02:58:16.911Z,78.6
2018-06-24T02:59:17.177Z,78.5
2018-06-24T03:00:16.453Z,79.1
2018-06-24T03:01:16.477Z,79.1
2018-06-24T03:02:16.743Z,78.9
2018-06-24T03:03:17.005Z,78.8
2018-06-24T03:04:16.539Z,78.8
2018-06-24T03:05:16.811Z,78.8
2018-06-24T03:06:17.097Z,78.9
2018-06-24T03:07:16.361Z,78.9
2018-06-24T03:08:16.627Z,79.0
2018-06-24T03:09:16.902Z,79.2
2018-06-24T03:10:17.197Z,79.2
2018-06-24T03:11:17.233Z,79.2
2018-06-24T03:12:16.520Z,79.1
2018-06-24T03:13:16.779Z,79.1
2018-06-24T03:14:17.046Z,79.0
2018-06-24T03:15:16.311Z,79.1
2018-06-24T03:16:16.568Z,79.2
2018-06-24T03:17:16.832Z,79.0
2018-06-24T03:18:17.225Z,78.9
2018-06-24T03:19:16.496Z,78.7
2018-06-24T03:20:16.756Z,78.8
2018-06-24T03:21:16.800Z,79.0
2018-06-24T03:22:17.053Z,79.4
2018-06-24T03:23:16.320Z,79.4
2018-06-24T03:24:16.582Z,79.5
2018-06-24T03:25:16.840Z,79.2
2018-06-24T03:26:17.102Z,79.0
2018-06-24T03:27:16.364Z,79.0
2018-06-24T03:28:16.629Z,79.2
2018-06-24T03:29:16.907Z,79.0
2018-06-24T03:30:17.174Z,78.6
2018-06-24T03:31:17.228Z,78.6
2018-06-24T03:32:16.484Z,78.7
2018-06-24T03:33:16.739Z,78.5
2018-06-24T03:34:16.997Z,78.5
2018-06-24T03:35:16.253Z,78.5
2018-06-24T03:36:16.519Z,78.5
2018-06-24T03:37:16.786Z,79.0
2018-06-24T03:38:17.043Z,78.5
2018-06-24T03:39:16.475Z,78.2
2018-06-24T03:40:16.749Z,78.2
2018-06-24T03:41:16.767Z,78.5
2018-06-24T03:42:17.035Z,78.8
2018-06-24T03:43:16.305Z,78.2
2018-06-24T03:44:16.568Z,78.0
2018-06-24T03:45:16.842Z,78.1
2018-06-24T03:46:17.098Z,77.8
2018-06-24T03:47:16.368Z,77.8
2018-06-24T03:48:16.632Z,78.2
2018-06-24T03:49:16.897Z,78.2
2018-06-24T03:50:17.171Z,78.3
2018-06-24T03:51:17.209Z,78.4
2018-06-24T03:52:16.457Z,78.7
2018-06-24T03:53:16.717Z,78.7
2018-06-24T03:54:16.975Z,78.5
2018-06-24T03:55:17.245Z,78.2
2018-06-24T03:56:16.520Z,78.2
2018-06-24T03:57:16.788Z,78.1
2018-06-24T03:58:17.054Z,78.3
2018-06-24T03:59:16.326Z,78.2
2018-06-24T04:00:16.590Z,77.8
2018-06-24T04:01:16.639Z,78.0
2018-06-24T04:02:16.905Z,77.7
2018-06-24T04:03:17.160Z,77.8
2018-06-24T04:04:16.425Z,77.8
2018-06-24T04:05:16.694Z,77.8
2018-06-24T04:06:16.955Z,77.8
2018-06-24T04:07:17.221Z,77.8
2018-06-24T04:08:16.484Z,77.7
2018-06-24T04:09:16.735Z,77.8
2018-06-24T04:10:17.007Z,77.8
2018-06-24T04:11:17.089Z,78.0
2018-06-24T04:12:16.352Z,77.8
2018-06-24T04:13:16.605Z,78.0
2018-06-24T04:14:16.887Z,78.3
2018-06-24T04:15:17.150Z,78.2
2018-06-24T04:16:16.411Z,79.2
2018-06-24T04:17:16.667Z,78.5
2018-06-24T04:18:17.047Z,77.9
2018-06-24T04:19:16.315Z,78.2
2018-06-24T04:20:16.610Z,78.7
2018-06-24T04:21:16.634Z,78.6
2018-06-24T04:22:16.893Z,78.9
2018-06-24T04:23:17.156Z,78.7
2018-06-24T04:24:16.420Z,78.9
2018-06-24T04:25:16.676Z,78.6
2018-06-24T04:26:16.961Z,78.8
2018-06-24T04:27:17.217Z,78.0
2018-06-24T04:28:16.469Z,78.1
2018-06-24T04:29:16.731Z,77.8
2018-06-24T04:30:17.018Z,78.1
2018-06-24T04:31:17.025Z,78.4
2018-06-24T04:32:16.284Z,78.2
2018-06-24T04:33:16.552Z,78.3
2018-06-24T04:34:16.810Z,78.3
2018-06-24T04:35:17.079Z,78.2
2018-06-24T04:36:16.728Z,78.0
2018-06-24T04:37:16.995Z,78.4
2018-06-24T04:38:16.258Z,78.0
2018-06-24T04:39:16.520Z,77.8
2018-06-24T04:40:16.784Z,78.0
2018-06-24T04:41:16.824Z,77.5
2018-06-24T04:42:17.086Z,77.9
2018-06-24T04:43:16.347Z,77.9
2018-06-24T04:44:16.614Z,77.5
2018-06-24T04:45:16.881Z,77.4
2018-06-24T04:46:17.459Z,77.5
2018-06-24T04:47:16.723Z,76.8
2018-06-24T04:48:16.991Z,76.5
2018-06-24T04:49:16.248Z,76.3
2018-06-24T04:50:16.516Z,76.6
2018-06-24T04:51:16.557Z,76.6
2018-06-24T04:52:16.813Z,76.5
2018-06-24T04:53:17.085Z,76.4
2018-06-24T04:54:16.353Z,76.6
2018-06-24T04:55:16.622Z,76.0
2018-06-24T04:56:16.885Z,76.0
2018-06-24T04:57:17.150Z,76.0
2018-06-24T04:58:16.402Z,75.5
2018-06-24T04:59:16.674Z,75.8
2018-06-24T05:00:16.986Z,75.2
2018-06-24T05:01:16.980Z,74.8
2018-06-24T05:02:17.231Z,74.7
2018-06-24T05:03:16.489Z,74.8
2018-06-24T05:04:16.757Z,74.7
2018-06-24T05:05:17.028Z,74.8
2018-06-24T05:06:16.302Z,75.0
2018-06-24T05:07:16.862Z,74.8
2018-06-24T05:08:17.124Z,74.8
2018-06-24T05:09:16.392Z,74.6
2018-06-24T05:10:16.654Z,74.7
2018-06-24T05:11:16.703Z,74.9
2018-06-24T05:12:16.966Z,74.6
2018-06-24T05:13:17.240Z,74.4
2018-06-24T05:14:16.501Z,74.7
2018-06-24T05:15:16.765Z,74.3
2018-06-24T05:16:17.026Z,74.4
2018-06-24T05:17:16.282Z,74.3
2018-06-24T05:18:16.546Z,73.8
2018-06-24T05:19:16.827Z,74.2
2018-06-24T05:20:17.109Z,73.4
2018-06-24T05:21:17.127Z,73.4
2018-06-24T05:22:16.388Z,73.5
2018-06-24T05:23:16.657Z,73.1
2018-06-24T05:24:16.910Z,73.4
2018-06-24T05:25:17.185Z,73.2
2018-06-24T05:26:16.442Z,73.9
2018-06-24T05:27:16.705Z,74.2
2018-06-24T05:28:16.958Z,74.2
2018-06-24T05:29:17.229Z,74.0
2018-06-24T05:30:16.508Z,73.4
2018-06-24T05:31:16.576Z,73.6
2018-06-24T05:32:16.840Z,73.2
2018-06-24T05:33:17.105Z,73.0
2018-06-24T05:34:16.377Z,73.2
2018-06-24T05:35:16.656Z,73.8
2018-06-24T05:36:16.942Z,73.7
2018-06-24T05:37:17.200Z,72.9
2018-06-24T05:38:16.536Z,72.5
2018-06-24T05:39:16.791Z,72.9
2018-06-24T05:40:17.055Z,74.0
2018-06-24T05:41:17.105Z,73.2
2018-06-24T05:42:16.361Z,73.5
2018-06-24T05:43:16.644Z,73.0
2018-06-24T05:44:16.908Z,72.6
2018-06-24T05:45:17.173Z,73.2
2018-06-24T05:46:16.432Z,72.5
2018-06-24T05:47:16.682Z,72.8
2018-06-24T05:48:16.946Z,72.2
2018-06-24T05:49:17.208Z,71.8
2018-06-24T05:50:16.493Z,72.2
2018-06-24T05:51:16.524Z,72.3
2018-06-24T05:52:16.794Z,72.2
2018-06-24T05:53:17.052Z,72.6
2018-06-24T05:54:16.383Z,72.8
2018-06-24T05:55:16.642Z,71.8
2018-06-24T05:56:16.900Z,71.8
2018-06-24T05:57:17.172Z,71.2
2018-06-24T05:58:16.429Z,71.3
2018-06-24T05:59:16.682Z,71.1
2018-06-24T06:00:16.966Z,72.1
2018-06-24T06:01:16.990Z,71.7
2018-06-24T06:02:17.251Z,71.5
2018-06-24T06:03:16.516Z,71.2
2018-06-24T06:04:16.776Z,70.8
2018-06-24T06:05:17.038Z,71.0
2018-06-24T06:06:16.293Z,71.1
2018-06-24T06:07:16.602Z,70.5
2018-06-24T06:08:16.865Z,71.1
2018-06-24T06:09:17.117Z,69.8
2018-06-24T06:10:16.677Z,69.2
2018-06-24T06:11:16.429Z,70.0
2018-06-24T06:12:16.693Z,69.7
2018-06-24T06:13:16.950Z,69.9
2018-06-24T06:14:17.240Z,69.6
2018-06-24T06:15:16.512Z,69.5
2018-06-24T06:16:16.771Z,69.5
2018-06-24T06:17:17.025Z,69.5
2018-06-24T06:18:16.280Z,69.9
2018-06-24T06:19:16.554Z,69.2
2018-06-24T06:20:16.826Z,69.8
2018-06-24T06:21:16.873Z,69.2
2018-06-24T06:22:17.137Z,69.7
2018-06-24T06:23:16.392Z,68.6
2018-06-24T06:24:16.659Z,68.5
2018-06-24T06:25:16.918Z,69.2
2018-06-24T06:26:17.188Z,70.0
2018-06-24T06:27:16.452Z,69.0
2018-06-24T06:28:16.704Z,68.7
2018-06-24T06:29:16.968Z,68.5
2018-06-24T06:30:17.352Z,67.5
2018-06-24T06:31:16.296Z,68.6
2018-06-24T06:32:16.557Z,68.2
2018-06-24T06:33:16.818Z,68.1
2018-06-24T06:34:17.079Z,68.6
2018-06-24T06:35:16.356Z,67.2
2018-06-24T06:36:16.623Z,68.3
2018-06-24T06:37:16.885Z,67.7
2018-06-24T06:38:17.469Z,66.8
2018-06-24T06:39:16.730Z,67.5
2018-06-24T06:40:16.988Z,67.7
2018-06-24T06:41:17.041Z,68.0
2018-06-24T06:42:16.304Z,67.0
2018-06-24T06:43:16.562Z,67.1
2018-06-24T06:44:16.832Z,67.5
2018-06-24T06:45:17.570Z,67.7
2018-06-24T06:46:16.935Z,67.2
2018-06-24T06:47:17.204Z,67.6
2018-06-24T06:48:16.464Z,67.6
2018-06-24T06:49:16.724Z,67.2
2018-06-24T06:50:16.987Z,66.2
2018-06-24T06:51:17.039Z,65.4
2018-06-24T06:52:16.300Z,65.8
2018-06-24T06:53:16.584Z,66.7
2018-06-24T06:54:16.844Z,66.2
2018-06-24T06:55:17.411Z,66.2
2018-06-24T06:56:16.671Z,65.4
2018-06-24T06:57:16.939Z,65.8
2018-06-24T06:58:17.202Z,65.7
2018-06-24T06:59:16.481Z,65.5
2018-06-24T07:00:16.944Z,65.2
2018-06-24T07:01:16.813Z,64.8
2018-06-24T07:02:17.072Z,64.3
2018-06-24T07:03:16.426Z,63.4
2018-06-24T07:04:16.700Z,63.1
2018-06-24T07:05:16.978Z,63.1
2018-06-24T07:06:17.240Z,62.9
2018-06-24T07:07:16.505Z,62.7
2018-06-24T07:08:16.777Z,61.6
2018-06-24T07:09:17.035Z,61.2
2018-06-24T07:10:16.313Z,62.2
2018-06-24T07:11:16.328Z,60.6
2018-06-24T07:12:16.596Z,61.3
2018-06-24T07:13:16.859Z,61.8
2018-06-24T07:14:17.144Z,60.6
2018-06-24T07:15:16.408Z,59.6
2018-06-24T07:16:16.664Z,58.8
2018-06-24T07:17:16.927Z,57.8
2018-06-24T07:18:17.191Z,57.4
2018-06-24T07:19:16.467Z,57.0
2018-06-24T07:20:16.737Z,56.5
2018-06-24T07:21:16.783Z,56.9
2018-06-24T07:22:17.038Z,56.0
2018-06-24T07:23:16.308Z,56.1
2018-06-24T07:24:16.573Z,56.5
2018-06-24T07:25:16.835Z,56.9
2018-06-24T07:26:17.090Z,57.1
2018-06-24T07:27:16.367Z,56.1
2018-06-24T07:28:16.633Z,55.9
2018-06-24T07:29:16.902Z,55.8
2018-06-24T07:30:17.177Z,55.8
2018-06-24T07:31:17.217Z,55.0
2018-06-24T07:32:16.475Z,55.5
2018-06-24T07:33:17.174Z,55.5
2018-06-24T07:34:16.577Z,53.2
2018-06-24T07:35:16.845Z,53.0
2018-06-24T07:36:17.112Z,53.9
2018-06-24T07:37:16.375Z,52.7
2018-06-24T07:38:16.632Z,52.8
2018-06-24T07:39:17.191Z,52.1
2018-06-24T07:40:16.564Z,51.2
2018-06-24T07:41:16.602Z,51.2
2018-06-24T07:42:16.871Z,50.3
2018-06-24T07:43:17.127Z,50.8
2018-06-24T07:44:16.392Z,50.7
2018-06-24T07:45:16.656Z,50.8
2018-06-24T07:46:17.184Z,51.1
2018-06-24T07:47:16.441Z,50.1
2018-06-24T07:48:16.704Z,49.9
2018-06-24T07:49:16.977Z,50.2
2018-06-24T07:50:17.311Z,49.7
2018-06-24T07:51:16.283Z,49.1
2018-06-24T07:52:16.548Z,49.7
2018-06-24T07:53:16.809Z,49.7
2018-06-24T07:54:17.068Z,49.6
2018-06-24T07:55:16.329Z,48.5
2018-06-24T07:56:16.583Z,48.2
2018-06-24T07:57:16.947Z,48.5
2018-06-24T07:58:17.219Z,48.0
2018-06-24T07:59:16.483Z,48.6
2018-06-24T08:00:16.759Z,47.8
2018-06-24T08:01:16.795Z,47.7
2018-06-24T08:02:17.054Z,47.5
2018-06-24T08:03:16.401Z,46.7
2018-06-24T08:04:16.658Z,46.8
2018-06-24T08:05:17.059Z,46.8
2018-06-24T08:06:16.330Z,45.9
2018-06-24T08:07:16.586Z,47.5
2018-06-24T08:08:16.856Z,46.4
2018-06-24T08:09:17.110Z,48.9
2018-06-24T08:10:16.369Z,49.0
2018-06-24T08:11:16.571Z,49.5
2018-06-24T08:12:16.848Z,47.3
2018-06-24T08:13:17.111Z,47.4
2018-06-24T08:14:16.376Z,45.5
2018-06-24T08:15:16.644Z,46.2
2018-06-24T08:16:16.904Z,46.5
2018-06-24T08:17:17.158Z,46.2
2018-06-24T08:18:16.426Z,44.8
2018-06-24T08:19:16.687Z,44.7
2018-06-24T08:20:16.954Z,46.6
2018-06-24T08:21:17.011Z,46.5
2018-06-24T08:22:16.280Z,45.0
2018-06-24T08:23:16.546Z,43.6
2018-06-24T08:24:16.805Z,44.2
2018-06-24T08:25:17.068Z,42.2
2018-06-24T08:26:16.329Z,42.0
2018-06-24T08:27:16.590Z,42.2
2018-06-24T08:28:16.849Z,41.7
2018-06-24T08:29:17.120Z,40.9
2018-06-24T08:30:16.409Z,40.5
2018-06-24T08:31:16.489Z,40.7
2018-06-24T08:32:16.757Z,42.8
2018-06-24T08:33:17.016Z,42.5
2018-06-24T08:34:16.300Z,41.1
2018-06-24T08:35:16.576Z,41.3
2018-06-24T08:36:16.836Z,41.6
2018-06-24T08:37:17.102Z,42.1
2018-06-24T08:38:16.367Z,41.2
2018-06-24T08:39:16.681Z,42.0
2018-06-24T08:40:16.953Z,41.8
2018-06-24T08:41:17.013Z,42.9
2018-06-24T08:42:16.278Z,43.1
2018-06-24T08:43:16.536Z,43.8
2018-06-24T08:44:16.799Z,42.2
2018-06-24T08:45:17.063Z,43.0
2018-06-24T08:46:16.319Z,43.1
2018-06-24T08:47:16.665Z,43.2
2018-06-24T08:48:16.981Z,43.8
2018-06-24T08:49:17.243Z,44.7
2018-06-24T08:50:16.510Z,45.7
2018-06-24T08:51:16.567Z,45.1
2018-06-24T08:52:16.827Z,45.0
2018-06-24T08:53:17.085Z,45.1
2018-06-24T08:54:16.431Z,44.9
2018-06-24T08:55:16.705Z,45.1
2018-06-24T08:56:16.971Z,45.0
2018-06-24T08:57:17.250Z,45.8
2018-06-24T08:58:16.513Z,44.5
2018-06-24T08:59:16.838Z,44.0
2018-06-24T09:00:17.101Z,44.5
2018-06-24T09:01:17.149Z,45.6
2018-06-24T09:02:16.411Z,44.7
2018-06-24T09:03:16.671Z,45.7
2018-06-24T09:04:16.932Z,45.2
2018-06-24T09:05:17.200Z,45.5
2018-06-24T09:06:16.458Z,45.8
2018-06-24T09:07:16.719Z,47.1
2018-06-24T09:08:16.992Z,47.3
2018-06-24T09:09:16.251Z,47.1
2018-06-24T09:10:16.534Z,47.2
2018-06-24T09:11:16.564Z,46.5
2018-06-24T09:12:16.825Z,47.5
2018-06-24T09:13:17.099Z,47.5
2018-06-24T09:14:16.452Z,47.8
2018-06-24T09:15:16.726Z,48.0
2018-06-24T09:16:16.993Z,48.5
2018-06-24T09:17:16.252Z,48.6
2018-06-24T09:18:16.519Z,48.5
2018-06-24T09:19:16.783Z,48.2
2018-06-24T09:20:17.049Z,48.8
2018-06-24T09:21:17.202Z,48.7
2018-06-24T09:22:16.471Z,49.0
2018-06-24T09:23:16.724Z,49.0
2018-06-24T09:24:16.983Z,50.1
2018-06-24T09:25:17.266Z,51.0
2018-06-24T09:26:16.537Z,51.6
2018-06-24T09:27:16.798Z,50.6
2018-06-24T09:28:17.049Z,50.2
2018-06-24T09:29:16.316Z,51.5
2018-06-24T09:30:16.586Z,51.8
2018-06-24T09:31:16.633Z,51.5
2018-06-24T09:32:16.893Z,52.6
2018-06-24T09:33:17.169Z,51.5
2018-06-24T09:34:16.429Z,51.2
2018-06-24T09:35:16.697Z,51.2
2018-06-24T09:36:16.960Z,51.1
2018-06-24T09:37:17.221Z,51.2
2018-06-24T09:38:16.492Z,51.2
2018-06-24T09:39:16.757Z,52.1
2018-06-24T09:40:17.029Z,52.5
2018-06-24T09:41:17.084Z,52.6
2018-06-24T09:42:16.345Z,51.7
2018-06-24T09:43:16.610Z,52.0
2018-06-24T09:44:16.877Z,51.7
2018-06-24T09:45:17.152Z,51.4
2018-06-24T09:46:16.414Z,50.6
2018-06-24T09:47:16.676Z,51.0
2018-06-24T09:48:16.928Z,50.4
2018-06-24T09:49:17.194Z,50.6
2018-06-24T09:50:16.454Z,51.2
2018-06-24T09:51:16.495Z,50.9
2018-06-24T09:52:16.750Z,50.5
2018-06-24T09:53:17.014Z,50.2
2018-06-24T09:54:16.281Z,50.0
2018-06-24T09:55:16.549Z,50.5
2018-06-24T09:56:16.814Z,50.5
2018-06-24T09:57:17.077Z,50.9
2018-06-24T09:58:16.339Z,51.0
2018-06-24T09:59:16.595Z,51.5
2018-06-24T10:00:16.861Z,50.4
2018-06-24T10:01:16.918Z,50.5
2018-06-24T10:02:17.183Z,50.0
2018-06-24T10:03:16.471Z,51.0
2018-06-24T10:04:16.799Z,51.1
2018-06-24T10:05:17.070Z,50.5
2018-06-24T10:06:16.342Z,50.2
2018-06-24T10:07:16.605Z,50.0
2018-06-24T10:08:16.857Z,50.1
2018-06-24T10:09:17.136Z,50.5
2018-06-24T10:10:16.404Z,50.0
2018-06-24T10:11:16.448Z,49.3
2018-06-24T10:12:16.710Z,48.9
2018-06-24T10:13:16.969Z,49.0
2018-06-24T10:14:17.237Z,48.8
2018-06-24T10:15:16.508Z,48.2
2018-06-24T10:16:16.758Z,48.9
2018-06-24T10:17:17.016Z,48.8
2018-06-24T10:18:16.270Z,49.4
2018-06-24T10:19:16.538Z,50.1
2018-06-24T10:20:16.818Z,48.9
2018-06-24T10:21:16.851Z,48.4
2018-06-24T10:22:17.113Z,47.2
2018-06-24T10:23:16.379Z,46.2
2018-06-24T10:24:16.657Z,46.0
2018-06-24T10:25:16.931Z,45.7
2018-06-24T10:26:17.192Z,46.0
2018-06-24T10:27:16.446Z,45.0
2018-06-24T10:28:16.705Z,46.8
2018-06-24T10:29:16.973Z,44.9
2018-06-24T10:30:17.242Z,45.4
2018-06-24T10:31:16.282Z,45.4
2018-06-24T10:32:16.541Z,46.0
2018-06-24T10:33:16.799Z,44.4
2018-06-24T10:34:17.073Z,44.4
2018-06-24T10:35:16.333Z,46.2
2018-06-24T10:36:16.596Z,44.1
2018-06-24T10:37:16.854Z,44.1
2018-06-24T10:38:17.114Z,43.6
2018-06-24T10:39:16.378Z,43.1
2018-06-24T10:40:16.645Z,43.3
2018-06-24T10:41:16.971Z,43.3
2018-06-24T10:42:16.418Z,42.4
2018-06-24T10:43:16.687Z,43.6
2018-06-24T10:44:16.945Z,44.0
2018-06-24T10:45:17.229Z,43.0
2018-06-24T10:46:16.501Z,43.1
2018-06-24T10:47:16.771Z,43.1
2018-06-24T10:48:17.096Z,42.6
2018-06-24T10:49:16.354Z,42.2
2018-06-24T10:50:16.621Z,41.6
2018-06-24T10:51:16.680Z,42.3
2018-06-24T10:52:16.945Z,43.5
2018-06-24T10:53:17.206Z,43.6
2018-06-24T10:54:16.462Z,43.3
2018-06-24T10:55:16.726Z,43.2
2018-06-24T10:56:16.986Z,42.9
2018-06-24T10:57:17.244Z,42.7
2018-06-24T10:58:16.504Z,43.0
2018-06-24T10:59:16.771Z,43.3
2018-06-24T11:00:17.044Z,43.4
2018-06-24T11:01:17.097Z,43.8
2018-06-24T11:02:16.631Z,43.5
2018-06-24T11:03:16.966Z,44.2
2018-06-24T11:04:17.230Z,44.8
2018-06-24T11:05:16.496Z,45.5
2018-06-24T11:06:16.764Z,45.4
2018-06-24T11:07:17.029Z,45.7
2018-06-24T11:08:16.284Z,44.9
2018-06-24T11:09:16.554Z,44.9
2018-06-24T11:10:16.824Z,45.0
2018-06-24T11:11:16.870Z,45.5
2018-06-24T11:12:17.129Z,45.9
2018-06-24T11:13:16.393Z,45.8
2018-06-24T11:14:16.646Z,45.4
2018-06-24T11:15:16.919Z,44.5
2018-06-24T11:16:17.180Z,43.0
2018-06-24T11:17:16.448Z,43.3
2018-06-24T11:18:16.716Z,42.0
2018-06-24T11:19:16.993Z,42.8
2018-06-24T11:20:16.270Z,42.1
2018-06-24T11:21:16.293Z,42.0
2018-06-24T11:22:16.551Z,42.8
2018-06-24T11:23:16.811Z,42.5
2018-06-24T11:24:17.092Z,42.7
2018-06-24T11:25:16.345Z,42.4
2018-06-24T11:26:16.610Z,42.5
2018-06-24T11:27:16.876Z,43.1
2018-06-24T11:28:17.136Z,43.2
2018-06-24T11:29:16.392Z,43.2
2018-06-24T11:30:16.662Z,43.9
2018-06-24T11:31:16.716Z,44.5
2018-06-24T11:32:16.978Z,44.2
2018-06-24T11:33:17.241Z,44.9
2018-06-24T11:34:16.500Z,44.3
2018-06-24T11:35:16.760Z,45.0
2018-06-24T11:36:17.014Z,45.2
2018-06-24T11:37:16.301Z,44.5
2018-06-24T11:38:16.563Z,44.6
2018-06-24T11:39:16.818Z,45.2
2018-06-24T11:40:17.099Z,45.3
2018-06-24T11:41:17.133Z,45.4
2018-06-24T11:42:16.396Z,44.1
2018-06-24T11:43:16.656Z,44.2
2018-06-24T11:44:16.920Z,44.7
2018-06-24T11:45:17.183Z,43.8
2018-06-24T11:46:16.441Z,43.0
2018-06-24T11:47:16.702Z,42.5
2018-06-24T11:48:16.965Z,42.5
2018-06-24T11:49:17.229Z,42.3
2018-06-24T11:50:16.506Z,42.0
2018-06-24T11:51:16.536Z,41.8
2018-06-24T11:52:16.800Z,41.3
2018-06-24T11:53:17.073Z,42.2
2018-06-24T11:54:16.332Z,42.7
2018-06-24T11:55:16.598Z,43.0
2018-06-24T11:56:16.859Z,42.7
2018-06-24T11:57:17.123Z,42.8
2018-06-24T11:58:16.377Z,42.8
2018-06-24T11:59:16.641Z,43.0
2018-06-24T12:00:16.902Z,42.5
2018-06-24T12:01:17.064Z,44.0
2018-06-24T12:02:16.317Z,44.0
2018-06-24T12:03:16.570Z,43.5
2018-06-24T12:04:17.060Z,43.5
2018-06-24T12:05:16.402Z,43.8
2018-06-24T12:06:16.664Z,43.6
2018-06-24T12:07:16.924Z,43.6
2018-06-24T12:08:17.485Z,43.8
2018-06-24T12:09:16.752Z,44.0
2018-06-24T12:10:17.017Z,43.8
2018-06-24T12:11:17.053Z,44.7
2018-06-24T12:12:16.322Z,44.8
2018-06-24T12:13:16.583Z,45.2
2018-06-24T12:14:16.844Z,44.5
2018-06-24T12:15:17.108Z,44.5
2018-06-24T12:16:16.366Z,45.5
2018-06-24T12:17:16.621Z,45.8
2018-06-24T12:18:17.110Z,45.0
2018-06-24T12:19:16.463Z,45.6
2018-06-24T12:20:16.725Z,45.7
2018-06-24T12:21:16.762Z,45.0
2018-06-24T12:22:17.011Z,44.6
2018-06-24T12:23:16.266Z,43.4
2018-06-24T12:24:16.533Z,45.0
2018-06-24T12:25:16.808Z,44.2
2018-06-24T12:26:17.069Z,45.0
2018-06-24T12:27:16.333Z,43.6
2018-06-24T12:28:16.597Z,45.0
2018-06-24T12:29:16.855Z,44.1
2018-06-24T12:30:17.130Z,43.6
2018-06-24T12:31:17.163Z,44.7
2018-06-24T12:32:16.442Z,44.4
2018-06-24T12:33:16.693Z,43.0
2018-06-24T12:34:16.952Z,42.6
2018-06-24T12:35:17.228Z,42.5
2018-06-24T12:36:16.497Z,42.0
2018-06-24T12:37:16.765Z,42.5
2018-06-24T12:38:17.026Z,43.0
2018-06-24T12:39:16.286Z,43.5
2018-06-24T12:40:16.550Z,44.9
2018-06-24T12:41:16.604Z,43.8
2018-06-24T12:42:16.858Z,43.8
2018-06-24T12:43:17.122Z,44.0
2018-06-24T12:44:16.393Z,44.5
2018-06-24T12:45:16.659Z,42.9
2018-06-24T12:46:16.919Z,43.0
2018-06-24T12:47:17.173Z,43.8
2018-06-24T12:48:16.430Z,43.9
2018-06-24T12:49:16.696Z,43.0
2018-06-24T12:50:16.968Z,43.2
2018-06-24T12:51:16.999Z,43.1
2018-06-24T12:52:16.260Z,43.5
2018-06-24T12:53:16.538Z,43.2
2018-06-24T12:54:16.791Z,43.6
2018-06-24T12:55:17.048Z,43.6
2018-06-24T12:56:16.309Z,43.9
2018-06-24T12:57:16.581Z,43.5
2018-06-24T12:58:17.032Z,43.6
2018-06-24T12:59:17.318Z,43.0
2018-06-24T13:00:18.206Z,43.0
2018-06-24T13:01:16.798Z,43.3
2018-06-24T13:02:17.063Z,43.1
2018-06-24T13:03:16.323Z,43.6
2018-06-24T13:04:16.584Z,42.2
2018-06-24T13:05:16.841Z,42.5
2018-06-24T13:06:17.111Z,43.3
2018-06-24T13:07:16.364Z,43.2
2018-06-24T13:08:16.633Z,44.1
2018-06-24T13:09:16.896Z,43.2
2018-06-24T13:10:17.172Z,43.5
2018-06-24T13:11:17.216Z,43.8
2018-06-24T13:12:16.489Z,43.1
2018-06-24T13:13:16.755Z,42.4
2018-06-24T13:14:17.182Z,42.8
2018-06-24T13:15:16.520Z,42.8
2018-06-24T13:16:16.777Z,42.4
2018-06-24T13:17:17.037Z,42.6
2018-06-24T13:18:16.294Z,43.8